createdAt,value
2023-04-09T21:02:39.447Z,102112.56
2023-04-09T21:05:19.564Z,102113.44
2023-04-09T21:07:49.866Z,102103.97
2023-04-09T21:10:17.110Z,102108.66
2023-04-09T21:12:44.609Z,102105.53
2023-04-09T21:15:12.056Z,102113.16
2023-04-09T21:17:39.441Z,102112.97
2023-04-09T21:20:07.197Z,102120.75
2023-04-09T21:22:35.324Z,102107.25
2023-04-09T21:25:03.582Z,102111.16
2023-04-09T21:27:31.405Z,102117.66
2023-04-09T21:29:59.086Z,102112.66
2023-04-09T21:32:26.585Z,102105.72
2023-04-09T21:34:53.977Z,102101.44
2023-04-09T21:37:21.387Z,102110.16
2023-04-09T21:39:49.126Z,102108.88
2023-04-09T21:42:16.440Z,102109.00
2023-04-09T21:44:43.744Z,102103.44
2023-04-09T21:47:12.446Z,102106.81
2023-04-09T21:49:40.825Z,102103.19
2023-04-09T21:52:14.782Z,102108.47
2023-04-09T21:54:45.942Z,102112.56
2023-04-09T21:57:13.309Z,102105.91
2023-04-09T21:59:41.669Z,102099.28
2023-04-09T22:02:09.490Z,102104.56
2023-04-09T22:04:37.038Z,102102.53
2023-04-09T22:07:04.450Z,102100.31
2023-04-09T22:09:31.927Z,102094.72
2023-04-09T22:11:59.849Z,102106.91
2023-04-09T22:14:29.785Z,102098.31
2023-04-09T22:16:58.537Z,102105.50
2023-04-09T22:19:26.504Z,102104.78
2023-04-09T22:21:54.582Z,102103.81
2023-04-09T22:24:30.230Z,102103.81
2023-04-09T22:27:01.720Z,102100.59
2023-04-09T22:29:29.520Z,102093.81
2023-04-09T22:31:56.825Z,102094.63
2023-04-09T22:34:24.792Z,102099.78
2023-04-09T22:36:52.181Z,102098.25
2023-04-09T22:39:19.623Z,102097.16
2023-04-09T22:41:47.218Z,102097.16
2023-04-09T22:44:14.586Z,102098.09
2023-04-09T22:46:42.376Z,102093.00
2023-04-09T22:49:10.117Z,102090.47
2023-04-09T22:51:38.953Z,102090.97
2023-04-09T22:54:07.575Z,102090.47
2023-04-09T22:56:36.862Z,102092.13
2023-04-09T22:59:05.278Z,102088.78
2023-04-09T23:01:33.457Z,102088.22
2023-04-09T23:04:00.823Z,102087.25
2023-04-09T23:06:28.190Z,102090.84
2023-04-09T23:08:56.116Z,102088.34
2023-04-09T23:11:23.435Z,102083.06
2023-04-09T23:13:50.844Z,102093.34
2023-04-09T23:16:18.228Z,102092.06
2023-04-09T23:18:45.797Z,102088.91
2023-04-09T23:21:14.589Z,102095.06
2023-04-09T23:23:42.506Z,102086.69
2023-04-09T23:26:09.817Z,102078.81
2023-04-09T23:28:37.572Z,102086.47
2023-04-09T23:31:05.345Z,102091.72
2023-04-09T23:33:32.838Z,102089.09
2023-04-09T23:36:00.301Z,102090.78
2023-04-09T23:38:27.663Z,102089.56
2023-04-09T23:40:55.165Z,102082.63
2023-04-09T23:43:22.517Z,102089.59
2023-04-09T23:45:50.809Z,102086.34
2023-04-09T23:48:18.116Z,102088.16
2023-04-09T23:50:45.616Z,102082.16
2023-04-09T23:53:12.884Z,102086.84
2023-04-09T23:55:58.962Z,102083.50
2023-04-09T23:58:44.759Z,102083.03
